Time;durP1;ratioP1;P1;durP2;ratioP2;P2;SDS_P1;SDS_P2;PMS_P1;PMS_P2;Temp;Humidity;BMP_temperature;BMP_pressure;BME280_temperature;BME280_humidity;BME280_pressure;Samples;Min_cycle;Max_cycle;Signal;HPM_P1;HPM_P2
2022/01/12 00:00:48;;;;;;;;;;;;;;;10.85;63.21;103634.00;5062852;28;20389;-85
2022/01/12 00:03:14;;;;;;;;;;;;;;;10.08;65.11;103640.44;5063563;28;19925;-85
2022/01/12 00:05:39;;;;;;;;;;;;;;;11.25;62.57;103641.94;5062840;28;20009;-84
2022/01/12 00:08:05;;;;;;;;;;;;;;;10.45;64.98;103651.28;5063056;28;19973;-84
2022/01/12 00:10:31;;;;;;;;;;;;;;;10.97;62.82;103640.25;5063844;28;20110;-84
2022/01/12 00:12:56;;;;;;;;;;;;;;;11.14;63.57;103642.91;5061237;28;19956;-84
2022/01/12 00:15:21;;;;;;;;;;;;;;;10.55;65.47;103650.34;5078035;28;19922;-84
2022/01/12 00:17:46;;;;;;;;;;;;;;;10.00;67.40;103639.56;5060263;28;19944;-83
2022/01/12 00:20:12;;;;;;;;;;;;;;;10.64;64.10;103627.75;5059961;28;19919;-83
2022/01/12 00:22:39;;;;;;;;;;;;;;;10.20;66.56;103616.06;5061213;28;19916;-83
2022/01/12 00:25:23;;;;;;;;;;;;;;;10.76;64.84;103611.44;5061281;28;19939;-83
2022/01/12 00:33:16;;;;;;;;;;;;;;;10.48;65.80;103615.16;5078781;28;19923;-82
2022/01/12 00:35:46;;;;;;;;;;;;;;;9.69;68.46;103616.13;5061388;28;19924;-83
2022/01/12 00:38:12;;;;;;;;;;;;;;;10.83;65.06;103615.03;5080002;28;19920;-83
2022/01/12 00:40:38;;;;;;;;;;;;;;;11.34;61.26;103614.78;5061591;28;19928;-83
2022/01/12 00:43:03;;;;;;;;;;;;;;;10.64;64.01;103622.31;5061541;28;19921;-84
2022/01/12 00:45:29;;;;;;;;;;;;;;;10.53;65.55;103630.47;5061050;28;19927;-83
2022/01/12 00:47:54;;;;;;;;;;;;;;;11.53;61.78;103635.44;5061847;28;20357;-83
2022/01/12 00:50:19;;;;;;;;;;;;;;;10.71;64.66;103640.34;5060831;28;20024;-82
2022/01/12 00:52:44;;;;;;;;;;;;;;;11.01;62.73;103641.16;5060635;28;19958;-85
2022/01/12 00:55:10;;;;;;;;;;;;;;;10.60;63.61;103644.91;5079052;28;19943;-83
2022/01/12 00:57:35;;;;;;;;;;;;;;;10.57;65.38;103635.00;5060426;28;19917;-82
2022/01/12 01:00:00;;;;;;;;;;;;;;;10.85;64.55;103628.56;5078121;28;19920;-83
2022/01/12 01:02:25;;;;;;;;;;;;;;;10.44;65.73;103627.81;5077853;28;19924;-84
2022/01/12 01:04:51;;;;;;;;;;;;;;;10.65;65.30;103632.25;5059488;28;19917;-84
2022/01/12 01:07:17;;;;;;;;;;;;;;;10.45;65.79;103633.22;5057627;28;20007;-82
2022/01/12 01:09:49;;;;;;;;;;;;;;;10.64;64.76;103628.66;5059621;28;19916;-84
2022/01/12 01:12:15;;;;;;;;;;;;;;;10.94;63.43;103612.28;5061739;28;19916;-83
2022/01/12 01:15:02;;;;;;;;;;;;;;;10.70;65.61;103608.75;5064529;28;19916;-84
2022/01/12 01:25:39;;;;;;;;;;;;;;;10.93;63.08;103600.56;5081501;28;19924;-84
2022/01/12 01:28:05;;;;;;;;;;;;;;;11.12;63.27;103600.47;5064849;28;19916;-83
2022/01/12 01:30:31;;;;;;;;;;;;;;;11.07;63.25;103616.75;5082299;28;19928;-84
2022/01/12 01:33:03;;;;;;;;;;;;;;;11.41;61.08;103616.53;5064809;28;19939;-84
2022/01/12 01:35:30;;;;;;;;;;;;;;;11.50;60.88;103613.78;5065407;28;20011;-85
2022/01/12 01:37:56;;;;;;;;;;;;;;;11.27;61.67;103616.63;5082660;28;19969;-84
2022/01/12 01:40:21;;;;;;;;;;;;;;;11.28;61.12;103633.81;5065656;28;20023;-84
2022/01/12 01:53:32;;;;;;;;;;;;;;;11.98;58.54;103681.25;5082126;28;19923;-84
2022/01/12 01:55:57;;;;;;;;;;;;;;;12.32;57.01;103680.97;5063860;28;19916;-84
2022/01/12 01:58:22;;;;;;;;;;;;;;;12.69;56.06;103683.28;5063449;28;19917;-84
2022/01/12 02:00:47;;;;;;;;;;;;;;;12.25;56.95;103691.91;5081145;28;19955;-84
2022/01/12 02:03:13;;;;;;;;;;;;;;;11.69;59.52;103700.41;5063901;28;19916;-85
2022/01/12 02:05:42;;;;;;;;;;;;;;;11.98;58.51;103719.22;5063631;28;19942;-84
2022/01/12 02:08:07;;;;;;;;;;;;;;;11.76;59.82;103728.38;5064495;28;20259;-83
2022/01/12 02:10:33;;;;;;;;;;;;;;;11.52;60.95;103735.78;5063099;28;19980;-83
2022/01/12 02:12:58;;;;;;;;;;;;;;;11.87;59.21;103740.09;5062651;28;19916;-84
2022/01/12 02:15:25;;;;;;;;;;;;;;;11.99;58.74;103728.28;5079334;28;19960;-84
2022/01/12 02:18:17;;;;;;;;;;;;;;;11.93;58.29;103734.66;5062661;28;20453;-83
2022/01/12 02:39:50;;;;;;;;;;;;;;;11.87;60.01;103753.66;5080251;28;20270;-82
2022/01/12 02:40:06;;;;;;;;;;;;;;;12.01;58.03;103759.91;5081516;28;19916;-83
2022/01/12 02:42:31;;;;;;;;;;;;;;;12.09;59.16;103754.41;5062506;28;20007;-83
2022/01/12 02:55:54;;;;;;;;;;;;;;;12.10;59.16;103744.47;5080034;28;19923;-84
2022/01/12 02:58:19;;;;;;;;;;;;;;;12.21;59.27;103746.19;5081211;28;19920;-84
2022/01/12 03:01:05;;;;;;;;;;;;;;;11.96;59.54;103742.75;5063008;28;20289;-84
2022/01/12 03:03:34;;;;;;;;;;;;;;;12.13;59.06;103741.75;5062955;28;19966;-84
2022/01/12 03:06:05;;;;;;;;;;;;;;;11.82;59.87;103745.53;5080862;28;19916;-84
2022/01/12 03:08:44;;;;;;;;;;;;;;;11.81;59.34;103742.84;5078530;28;19916;-83
2022/01/12 03:11:11;;;;;;;;;;;;;;;11.41;62.69;103730.38;5062167;28;20361;-83
2022/01/12 03:13:37;;;;;;;;;;;;;;;11.74;61.01;103725.69;5079978;28;19917;-85
2022/01/12 03:16:11;;;;;;;;;;;;;;;11.50;62.02;103721.31;5062168;28;20290;-84
2022/01/12 03:18:37;;;;;;;;;;;;;;;12.01;60.39;103716.47;5080151;28;19925;-85
2022/01/12 03:21:02;;;;;;;;;;;;;;;12.80;56.91;103726.63;5061266;28;20006;-83
2022/01/12 03:23:27;;;;;;;;;;;;;;;12.75;56.75;103737.53;5060691;28;19923;-84
2022/01/12 03:25:53;;;;;;;;;;;;;;;12.62;57.57;103752.19;5062940;28;19951;-84
2022/01/12 03:28:18;;;;;;;;;;;;;;;12.83;56.56;103761.03;5062885;28;20293;-84
2022/01/12 03:30:53;;;;;;;;;;;;;;;13.17;55.43;103757.94;5061766;28;19929;-83
2022/01/12 03:33:36;;;;;;;;;;;;;;;11.92;59.20;103767.19;5061835;28;19920;-83
2022/01/12 03:38:46;;;;;;;;;;;;;;;11.82;60.47;103766.31;5038647;28;19909;-84
2022/01/12 03:41:12;;;;;;;;;;;;;;;11.87;59.85;103767.22;5062264;28;19924;-84
2022/01/12 03:43:37;;;;;;;;;;;;;;;12.52;58.51;103764.03;5060396;28;20408;-83
2022/01/12 03:46:03;;;;;;;;;;;;;;;11.94;60.17;103777.16;5061447;28;19916;-83
2022/01/12 03:48:28;;;;;;;;;;;;;;;11.97;60.26;103782.56;5060920;28;19920;-84
2022/01/12 03:50:56;;;;;;;;;;;;;;;12.16;60.32;103774.28;5061494;28;19924;-83
2022/01/12 03:53:21;;;;;;;;;;;;;;;12.19;60.41;103769.72;5079130;28;19991;-83
2022/01/12 03:55:46;;;;;;;;;;;;;;;12.75;57.22;103783.72;5061375;28;19951;-84
2022/01/12 03:58:12;;;;;;;;;;;;;;;12.15;59.38;103777.91;5061140;28;19916;-84
2022/01/12 04:00:37;;;;;;;;;;;;;;;12.68;57.54;103786.50;5060165;28;19986;-85
2022/01/12 04:03:05;;;;;;;;;;;;;;;12.93;56.40;103787.19;5060562;28;20297;-83
2022/01/12 04:08:20;;;;;;;;;;;;;;;13.08;55.24;103780.69;5078191;28;20464;-84
2022/01/12 04:10:53;;;;;;;;;;;;;;;13.07;55.72;103768.94;5059524;28;19916;-83
2022/01/12 04:13:19;;;;;;;;;;;;;;;12.83;55.99;103769.16;5058676;28;19969;-84
2022/01/12 04:15:46;;;;;;;;;;;;;;;12.85;56.36;103772.78;5059368;28;20023;-83
2022/01/12 04:18:11;;;;;;;;;;;;;;;12.84;56.51;103773.69;5059913;28;19920;-83
2022/01/12 04:20:47;;;;;;;;;;;;;;;13.28;54.81;103767.75;5059657;28;19963;-83
2022/01/12 04:23:17;;;;;;;;;;;;;;;13.53;54.11;103767.50;5059734;28;20000;-82
2022/01/12 04:25:43;;;;;;;;;;;;;;;13.54;54.16;103768.38;5060028;28;19917;-82
2022/01/12 04:28:08;;;;;;;;;;;;;;;13.13;54.40;103778.81;5059403;28;19904;-83
2022/01/12 04:30:33;;;;;;;;;;;;;;;12.68;56.35;103792.88;5058962;28;19928;-82
2022/01/12 04:32:58;;;;;;;;;;;;;;;12.74;55.91;103798.25;5058488;28;20015;-84
2022/01/12 04:35:29;;;;;;;;;;;;;;;13.34;54.64;103799.44;5059443;28;19917;-83
2022/01/12 04:37:54;;;;;;;;;;;;;;;13.52;53.89;103798.31;5059754;28;19922;-84
2022/01/12 04:40:20;;;;;;;;;;;;;;;13.43;53.89;103788.44;5059443;28;19920;-84
2022/01/12 04:42:45;;;;;;;;;;;;;;;13.41;53.82;103789.41;4996192;28;1797681;-84
2022/01/12 04:45:31;;;;;;;;;;;;;;;13.28;54.16;103783.16;5060806;28;19924;-84
2022/01/12 04:50:22;;;;;;;;;;;;;;;13.01;54.90;103762.63;5081751;28;19923;-84
2022/01/12 04:52:48;;;;;;;;;;;;;;;12.47;56.50;103779.47;5063497;28;19917;-84
2022/01/12 04:55:13;;;;;;;;;;;;;;;12.61;56.48;103771.22;5062812;28;19972;-85
2022/01/12 04:57:38;;;;;;;;;;;;;;;12.77;55.36;103765.63;5064398;28;19962;-84
2022/01/12 05:00:13;;;;;;;;;;;;;;;12.43;56.02;103767.72;5065108;28;20003;-83
2022/01/12 05:13:47;;;;;;;;;;;;;;;12.82;54.84;103783.66;5082316;28;19923;-85
2022/01/12 05:16:13;;;;;;;;;;;;;;;12.55;55.35;103797.50;5080501;28;19917;-83
2022/01/12 05:18:39;;;;;;;;;;;;;;;12.66;55.46;103797.41;5081163;28;19962;-84
2022/01/12 05:21:05;;;;;;;;;;;;;;;12.68;55.21;103801.03;5063676;28;20350;-84
2022/01/12 05:23:30;;;;;;;;;;;;;;;12.84;54.50;103815.34;5063792;28;19917;-84
2022/01/12 05:25:56;;;;;;;;;;;;;;;12.65;54.93;103817.34;5063808;28;20008;-84
2022/01/12 05:28:22;;;;;;;;;;;;;;;11.80;57.85;103811.53;5063491;28;19912;-83
2022/01/12 05:30:47;;;;;;;;;;;;;;;12.17;56.92;103814.09;5062834;28;19942;-84
2022/01/12 05:33:13;;;;;;;;;;;;;;;12.62;54.77;103819.16;5079444;28;19920;-84
2022/01/12 05:35:38;;;;;;;;;;;;;;;12.59;54.95;103810.16;5062859;28;20373;-84
2022/01/12 05:38:08;;;;;;;;;;;;;;;12.55;55.36;103813.78;5063511;28;19916;-84
2022/01/12 05:40:33;;;;;;;;;;;;;;;12.19;56.19;103815.88;5063249;28;19936;-84
2022/01/12 05:43:00;;;;;;;;;;;;;;;12.48;55.35;103806.59;5080671;28;20373;-84
2022/01/12 05:45:26;;;;;;;;;;;;;;;12.22;55.95;103821.28;5063885;28;19964;-86
2022/01/12 05:50:17;;;;;;;;;;;;;;;11.98;56.18;103810.59;5084038;28;19955;-84
2022/01/12 05:52:43;;;;;;;;;;;;;;;12.30;55.08;103815.78;5066876;28;19924;-84
2022/01/12 05:55:08;;;;;;;;;;;;;;;12.01;55.86;103826.84;5085355;28;20293;-86
2022/01/12 05:57:34;;;;;;;;;;;;;;;12.00;56.28;103834.09;5067459;28;19920;-84
2022/01/12 06:00:00;;;;;;;;;;;;;;;11.98;55.37;103825.03;5067606;28;19916;-84
2022/01/12 06:02:25;;;;;;;;;;;;;;;12.47;54.20;103823.81;5084683;28;19912;-83
2022/01/12 06:04:51;;;;;;;;;;;;;;;12.12;54.61;103832.19;5066002;28;20369;-83
2022/01/12 06:07:16;;;;;;;;;;;;;;;11.82;56.49;103848.63;5065102;28;19962;-82
2022/01/12 06:09:41;;;;;;;;;;;;;;;12.21;55.12;103845.72;5084461;28;19920;-85
2022/01/12 06:12:08;;;;;;;;;;;;;;;11.64;55.35;103843.25;5065909;28;19939;-83
2022/01/12 06:14:34;;;;;;;;;;;;;;;12.03;55.45;103852.13;5065495;28;19972;-83
2022/01/12 06:16:59;;;;;;;;;;;;;;;11.91;55.37;103869.34;5065589;28;20001;-84
2022/01/12 06:19:24;;;;;;;;;;;;;;;11.69;55.69;103883.00;5064954;28;19927;-82
2022/01/12 06:21:50;;;;;;;;;;;;;;;11.51;56.78;103886.69;5064003;28;19916;-83
2022/01/12 06:24:15;;;;;;;;;;;;;;;11.50;56.62;103890.31;5062685;28;19924;-85
2022/01/12 06:26:43;;;;;;;;;;;;;;;11.41;57.37;103878.56;5062785;28;19923;-84
2022/01/12 06:31:36;;;;;;;;;;;;;;;11.27;57.87;103882.22;5084287;28;19925;-84
2022/01/12 06:34:01;;;;;;;;;;;;;;;11.66;55.62;103887.56;5065997;28;19924;-83
2022/01/12 06:36:26;;;;;;;;;;;;;;;11.46;56.15;103891.22;5065889;28;19904;-85
2022/01/12 06:38:51;;;;;;;;;;;;;;;11.24;56.96;103895.78;5065604;28;20366;-84
2022/01/12 06:41:18;;;;;;;;;;;;;;;11.74;55.56;103891.13;5064818;28;20362;-84
2022/01/12 06:43:43;;;;;;;;;;;;;;;12.03;55.07;103896.47;5061392;28;19929;-83
2022/01/12 06:46:09;;;;;;;;;;;;;;;12.00;53.92;103892.84;5062022;28;19927;-86
2022/01/12 06:48:34;;;;;;;;;;;;;;;12.20;54.37;103898.22;5062568;28;20444;-84
2022/01/12 06:51:00;;;;;;;;;;;;;;;11.95;54.32;103892.00;5062095;28;19917;-84
2022/01/12 06:53:25;;;;;;;;;;;;;;;12.00;54.21;103901.00;5060864;28;19920;-83
2022/01/12 06:55:50;;;;;;;;;;;;;;;11.56;55.35;103908.34;5058957;28;19925;-84
2022/01/12 06:58:16;;;;;;;;;;;;;;;12.21;54.19;103910.84;5056302;28;19917;-85
2022/01/12 07:00:41;;;;;;;;;;;;;;;12.04;54.63;103913.66;5058471;28;19964;-85
2022/01/12 07:03:06;;;;;;;;;;;;;;;11.91;55.17;103918.19;5057290;28;19947;-88
2022/01/12 07:05:31;;;;;;;;;;;;;;;11.91;55.67;103929.03;5058368;28;20385;-88
2022/01/12 07:07:57;;;;;;;;;;;;;;;11.44;55.66;103936.38;5060866;28;19970;-90
2022/01/12 07:10:24;;;;;;;;;;;;;;;12.02;54.21;103942.63;5059304;28;19928;-87
2022/01/12 07:12:49;;;;;;;;;;;;;;;12.07;54.29;103948.03;5058784;28;19964;-89
2022/01/12 07:15:14;;;;;;;;;;;;;;;12.12;54.07;103941.66;5058163;28;19921;-85
2022/01/12 07:17:39;;;;;;;;;;;;;;;11.51;55.39;103946.31;5056702;28;19917;-86
2022/01/12 07:20:05;;;;;;;;;;;;;;;11.60;55.44;103945.41;5056788;28;19932;-85
2022/01/12 07:22:31;;;;;;;;;;;;;;;10.89;56.02;103940.03;5041018;28;20306;-85
2022/01/12 07:24:59;;;;;;;;;;;;;;;11.31;55.87;103938.22;5057252;28;19916;-87
2022/01/12 07:27:24;;;;;;;;;;;;;;;11.27;55.96;103941.84;5058447;28;19916;-86
2022/01/12 07:29:49;;;;;;;;;;;;;;;11.52;54.85;103945.44;5056268;28;19971;-86
2022/01/12 07:32:14;;;;;;;;;;;;;;;11.30;54.51;103939.13;5058716;28;19928;-86
2022/01/12 07:34:40;;;;;;;;;;;;;;;11.35;55.25;103956.31;5059134;28;19931;-85
2022/01/12 07:37:05;;;;;;;;;;;;;;;11.33;54.87;103957.19;5060336;28;19916;-85
2022/01/12 07:39:31;;;;;;;;;;;;;;;11.10;55.66;103962.63;5059282;28;20405;-86
2022/01/12 07:41:58;;;;;;;;;;;;;;;11.11;56.47;103959.94;5059295;28;19917;-86
2022/01/12 07:44:23;;;;;;;;;;;;;;;11.06;56.26;103963.53;5058110;28;19921;-85
2022/01/12 07:46:48;;;;;;;;;;;;;;;11.31;56.06;103964.44;5057912;28;20290;-86
2022/01/12 07:49:14;;;;;;;;;;;;;;;10.63;56.94;103967.97;5060331;28;19967;-86
2022/01/12 07:51:40;;;;;;;;;;;;;;;10.79;57.68;103965.28;5058285;28;19917;-85
2022/01/12 07:54:05;;;;;;;;;;;;;;;11.38;55.05;103962.63;5057991;28;19916;-86
2022/01/12 07:56:31;;;;;;;;;;;;;;;10.71;56.34;103967.09;5058383;28;19921;-86
2022/01/12 07:58:56;;;;;;;;;;;;;;;11.13;55.48;103962.63;5059123;28;20007;-86
2022/01/12 08:01:21;;;;;;;;;;;;;;;11.42;55.10;103967.13;5057541;28;20015;-86
2022/01/12 08:03:46;;;;;;;;;;;;;;;11.06;55.53;103982.50;5058358;28;19917;-86
2022/01/12 08:06:11;;;;;;;;;;;;;;;11.09;55.99;104002.34;5059234;28;19920;-86
2022/01/12 08:08:37;;;;;;;;;;;;;;;11.45;55.19;104005.97;5057011;28;19917;-86
2022/01/12 08:11:02;;;;;;;;;;;;;;;11.56;54.57;104005.97;5059153;28;19920;-85
2022/01/12 08:13:27;;;;;;;;;;;;;;;11.86;54.03;104010.44;5058192;28;19923;-86
2022/01/12 08:15:52;;;;;;;;;;;;;;;11.89;53.29;104013.13;5058280;28;19948;-86
2022/01/12 08:18:18;;;;;;;;;;;;;;;11.99;53.42;104005.03;5055699;28;19940;-87
2022/01/12 08:20:43;;;;;;;;;;;;;;;11.58;54.39;104008.69;5056286;28;19917;-85
2022/01/12 08:23:08;;;;;;;;;;;;;;;11.60;54.58;104005.06;5052432;28;20056;-84
2022/01/12 08:25:37;;;;;;;;;;;;;;;11.60;54.29;103998.75;5036500;28;19963;-82
2022/01/12 08:28:03;;;;;;;;;;;;;;;11.70;53.88;104006.88;5036496;28;20154;-81
2022/01/12 08:30:29;;;;;;;;;;;;;;;11.68;53.95;103996.91;5035294;28;19947;-82
2022/01/12 08:32:55;;;;;;;;;;;;;;;11.98;53.30;104011.38;5035805;28;20428;-82
2022/01/12 08:35:21;;;;;;;;;;;;;;;11.68;54.89;104019.53;5044865;28;19917;-83
2022/01/12 08:37:46;;;;;;;;;;;;;;;11.66;55.09;104018.63;5056292;28;19917;-83
2022/01/12 08:40:13;;;;;;;;;;;;;;;11.52;55.90;104034.91;5055893;28;20263;-80
2022/01/12 08:42:39;;;;;;;;;;;;;;;11.54;55.25;104032.19;5054380;28;20417;-83
2022/01/12 08:45:05;;;;;;;;;;;;;;;11.63;55.15;104042.13;5054850;28;19916;-83
2022/01/12 08:47:30;;;;;;;;;;;;;;;11.22;56.47;104045.72;5055501;28;19955;-83
2022/01/12 08:49:55;;;;;;;;;;;;;;;11.21;56.35;104049.34;5055268;28;19917;-83
2022/01/12 08:52:22;;;;;;;;;;;;;;;11.45;56.38;104053.88;5053422;28;19963;-83
2022/01/12 08:54:47;;;;;;;;;;;;;;;11.88;54.70;104051.13;5056037;28;19924;-82
2022/01/12 08:57:12;;;;;;;;;;;;;;;12.03;53.93;104047.50;5055568;28;19921;-81
2022/01/12 08:59:37;;;;;;;;;;;;;;;12.17;53.65;104051.13;5054862;28;20037;-83
2022/01/12 09:02:03;;;;;;;;;;;;;;;12.26;53.30;104057.41;5057033;28;19935;-82
2022/01/12 09:04:28;;;;;;;;;;;;;;;11.98;53.79;104061.09;5055290;28;19956;-83
2022/01/12 09:06:54;;;;;;;;;;;;;;;11.90;54.55;104060.19;5055624;28;19924;-84
2022/01/12 09:09:19;;;;;;;;;;;;;;;12.40;53.56;104064.59;5053833;28;19917;-84
2022/01/12 09:11:45;;;;;;;;;;;;;;;12.14;54.42;104077.34;5054696;28;19962;-84
2022/01/12 09:14:10;;;;;;;;;;;;;;;12.20;54.46;104077.34;5055050;28;20355;-82
2022/01/12 09:16:35;;;;;;;;;;;;;;;12.57;53.97;104072.69;5054853;28;20374;-83
2022/01/12 09:19:00;;;;;;;;;;;;;;;12.49;54.46;104073.63;5056022;28;20393;-83
2022/01/12 09:21:28;;;;;;;;;;;;;;;12.56;54.16;104081.75;5055052;28;19916;-83
2022/01/12 09:23:53;;;;;;;;;;;;;;;12.10;55.61;104081.00;5055548;28;19917;-83
2022/01/12 09:26:18;;;;;;;;;;;;;;;12.52;54.46;104095.34;5053946;28;20374;-83
2022/01/12 09:28:45;;;;;;;;;;;;;;;12.13;55.08;104097.28;5071115;28;19924;-83
2022/01/12 09:31:11;;;;;;;;;;;;;;;11.95;56.00;104104.50;5054291;28;19925;-83
2022/01/12 09:33:36;;;;;;;;;;;;;;;11.96;56.30;104105.44;5057753;28;20255;-81
2022/01/12 09:36:02;;;;;;;;;;;;;;;12.20;56.04;104105.38;5058078;28;19919;-85
2022/01/12 09:38:27;;;;;;;;;;;;;;;11.97;55.46;104102.72;5059612;28;20362;-85
2022/01/12 09:40:53;;;;;;;;;;;;;;;12.16;56.18;104108.13;5073863;28;19971;-83
2022/01/12 09:43:18;;;;;;;;;;;;;;;12.88;54.10;104109.69;5057925;28;19920;-84
2022/01/12 09:45:49;;;;;;;;;;;;;;;11.98;56.92;104120.78;5058070;28;19948;-84
2022/01/12 09:48:14;;;;;;;;;;;;;;;11.90;57.01;104125.31;5058045;28;19917;-83
2022/01/12 09:50:39;;;;;;;;;;;;;;;12.10;57.21;104124.41;5058902;28;20029;-83
2022/01/12 09:53:05;;;;;;;;;;;;;;;12.35;57.22;104120.75;5058828;28;19976;-85
2022/01/12 09:55:30;;;;;;;;;;;;;;;12.48;56.39;104131.56;5057885;28;20491;-83
2022/01/12 09:57:55;;;;;;;;;;;;;;;12.31;56.14;104127.09;5075150;28;20386;-85
2022/01/12 10:00:26;;;;;;;;;;;;;;;12.61;56.54;104125.19;5058171;28;20028;-84
2022/01/12 10:02:51;;;;;;;;;;;;;;;12.16;57.77;104121.69;5059837;28;19991;-83
2022/01/12 10:05:17;;;;;;;;;;;;;;;12.66;56.47;104125.19;5058799;28;19960;-83
2022/01/12 10:07:42;;;;;;;;;;;;;;;12.44;58.07;104130.69;5057992;28;19913;-84
2022/01/12 10:10:09;;;;;;;;;;;;;;;13.01;55.48;104126.81;5057423;28;19995;-83
2022/01/12 10:12:34;;;;;;;;;;;;;;;13.14;54.89;104139.44;5057012;28;19956;-84
2022/01/12 10:15:01;;;;;;;;;;;;;;;13.11;55.39;104142.19;5052269;28;19921;-83
2022/01/12 10:17:33;;;;;;;;;;;;;;;13.20;55.03;104144.84;5052111;28;19928;-83
2022/01/12 10:20:04;;;;;;;;;;;;;;;13.36;54.37;104144.78;5057377;28;19916;-89
2022/01/12 10:22:30;;;;;;;;;;;;;;;13.40;54.76;104131.16;5060014;28;19917;-88
2022/01/12 10:24:59;;;;;;;;;;;;;;;13.58;54.08;104131.94;5054447;28;19932;-85
2022/01/12 10:27:24;;;;;;;;;;;;;;;12.86;56.93;104122.38;5051173;28;19924;-88
2022/01/12 10:29:58;;;;;;;;;;;;;;;12.94;56.31;104120.53;5039244;28;20338;-87
2022/01/12 10:32:23;;;;;;;;;;;;;;;13.08;56.32;104109.56;5039041;28;20012;-89
2022/01/12 10:34:49;;;;;;;;;;;;;;;12.49;57.58;104112.56;5039970;28;19979;-87
2022/01/12 10:37:19;;;;;;;;;;;;;;;12.03;59.91;104119.00;5042883;28;20405;-87
2022/01/12 10:39:46;;;;;;;;;;;;;;;12.68;58.00;104110.69;5039333;28;19979;-88
2022/01/12 10:42:12;;;;;;;;;;;;;;;12.37;58.80;104124.34;5039156;28;20359;-88
2022/01/12 10:44:39;;;;;;;;;;;;;;;12.86;57.12;104119.66;5041408;28;19917;-86
2022/01/12 10:47:05;;;;;;;;;;;;;;;12.58;57.17;104112.50;5043606;28;19964;-87
2022/01/12 10:49:36;;;;;;;;;;;;;;;12.69;57.07;104108.88;5059956;28;19917;-89
2022/01/12 10:52:01;;;;;;;;;;;;;;;12.97;56.16;104123.22;5041513;28;20045;-86
2022/01/12 10:54:26;;;;;;;;;;;;;;;12.93;56.40;104135.91;5043173;28;20000;-88
2022/01/12 10:56:52;;;;;;;;;;;;;;;12.85;56.28;104151.38;5042232;28;19927;-87
2022/01/12 10:59:18;;;;;;;;;;;;;;;12.19;58.20;104149.72;5043267;28;19917;-87
2022/01/12 11:01:44;;;;;;;;;;;;;;;12.49;57.86;104145.13;5042953;28;20413;-88
2022/01/12 11:04:09;;;;;;;;;;;;;;;12.68;57.98;104137.84;5043159;28;19916;-87
2022/01/12 11:06:34;;;;;;;;;;;;;;;13.15;55.62;104134.91;5042834;28;19913;-88
2022/01/12 11:09:00;;;;;;;;;;;;;;;12.57;57.31;104132.44;5041827;28;19960;-89
2022/01/12 11:11:26;;;;;;;;;;;;;;;11.84;60.38;104134.34;5044646;28;19932;-87
2022/01/12 11:13:52;;;;;;;;;;;;;;;12.31;59.19;104127.09;5041474;28;19921;-89
2022/01/12 11:16:21;;;;;;;;;;;;;;;11.14;62.77;104121.59;5042331;28;19963;-89
2022/01/12 11:18:47;;;;;;;;;;;;;;;12.07;60.91;104113.56;5042236;28;19939;-89
2022/01/12 11:21:24;;;;;;;;;;;;;;;12.12;61.00;104098.16;5042187;28;20390;-88
2022/01/12 11:23:52;;;;;;;;;;;;;;;12.80;58.07;104106.09;5042727;28;20391;-87
2022/01/12 11:26:19;;;;;;;;;;;;;;;12.47;58.89;104117.09;5041633;28;19917;-86
2022/01/12 11:28:46;;;;;;;;;;;;;;;11.68;61.18;104113.53;5041635;28;19917;-87
2022/01/12 11:31:15;;;;;;;;;;;;;;;11.64;61.99;104104.50;5041189;28;19930;-88
2022/01/12 11:33:42;;;;;;;;;;;;;;;12.23;60.87;104094.53;5040307;28;20267;-87
2022/01/12 11:36:16;;;;;;;;;;;;;;;11.52;63.49;104097.28;5041646;28;20416;-87
2022/01/12 11:38:47;;;;;;;;;;;;;;;11.85;62.51;104099.97;5040812;28;20440;-88
2022/01/12 11:41:17;;;;;;;;;;;;;;;12.29;60.74;104087.25;5041045;28;19966;-88
2022/01/12 11:43:47;;;;;;;;;;;;;;;12.29;60.05;104088.19;5040739;28;19925;-86
2022/01/12 11:46:22;;;;;;;;;;;;;;;11.78;62.48;104084.63;5040141;28;19963;-84
2022/01/12 11:48:49;;;;;;;;;;;;;;;12.32;61.56;104084.53;5040828;28;19916;-85
2022/01/12 11:51:16;;;;;;;;;;;;;;;12.20;60.41;104093.66;5040231;28;19927;-85
2022/01/12 11:53:52;;;;;;;;;;;;;;;11.81;61.94;104100.91;5040820;28;19927;-86
2022/01/12 11:56:20;;;;;;;;;;;;;;;11.92;61.81;104103.59;5041296;28;20290;-86
2022/01/12 11:58:52;;;;;;;;;;;;;;;11.76;62.49;104103.63;5057532;28;19917;-86
2022/01/12 12:01:18;;;;;;;;;;;;;;;12.45;60.77;104099.00;5039479;28;19967;-89
2022/01/12 12:03:54;;;;;;;;;;;;;;;12.66;59.88;104088.03;5039878;28;20378;-86
2022/01/12 12:06:20;;;;;;;;;;;;;;;12.68;58.57;104077.16;5040242;28;19960;-88
2022/01/12 12:08:57;;;;;;;;;;;;;;;11.86;61.69;104088.22;5040920;28;19921;-86
2022/01/12 12:11:24;;;;;;;;;;;;;;;11.94;62.80;104083.75;5041378;28;19927;-87
2022/01/12 12:13:49;;;;;;;;;;;;;;;12.93;59.81;104087.00;5041195;28;19960;-86
2022/01/12 12:16:15;;;;;;;;;;;;;;;12.88;59.27;104071.66;5040435;28;19928;-86
2022/01/12 12:18:41;;;;;;;;;;;;;;;12.94;59.63;104077.94;5039742;28;19970;-85
2022/01/12 12:21:07;;;;;;;;;;;;;;;12.75;60.56;104078.94;5040027;28;19917;-87
2022/01/12 12:23:32;;;;;;;;;;;;;;;12.53;60.35;104075.41;5038951;28;19963;-84
2022/01/12 12:25:59;;;;;;;;;;;;;;;12.05;63.13;104073.75;5057762;28;19913;-86
2022/01/12 12:28:24;;;;;;;;;;;;;;;12.64;61.28;104069.97;5040773;28;19916;-85
2022/01/12 12:30:49;;;;;;;;;;;;;;;12.19;62.74;104067.41;5039937;28;19928;-85
2022/01/12 12:33:16;;;;;;;;;;;;;;;12.13;62.39;104060.16;5040768;28;19920;-89
2022/01/12 12:35:42;;;;;;;;;;;;;;;11.93;63.66;104064.75;5041005;28;19963;-85
2022/01/12 12:38:09;;;;;;;;;;;;;;;12.65;62.00;104061.81;5056776;28;19916;-84
2022/01/12 12:40:36;;;;;;;;;;;;;;;12.13;62.53;104056.56;5040765;28;19917;-85
2022/01/12 12:43:01;;;;;;;;;;;;;;;12.24;63.71;104054.69;5039189;28;19974;-85
2022/01/12 12:45:36;;;;;;;;;;;;;;;12.07;64.56;104065.59;5041603;28;19976;-84
2022/01/12 12:48:05;;;;;;;;;;;;;;;12.66;61.37;104066.31;5043725;28;19981;-85
2022/01/12 12:50:39;;;;;;;;;;;;;;;12.67;61.20;104059.09;5040657;28;19923;-86
2022/01/12 12:53:04;;;;;;;;;;;;;;;12.45;62.05;104069.13;5057569;28;19957;-85
2022/01/12 12:55:34;;;;;;;;;;;;;;;13.80;57.28;104075.53;5039682;28;20291;-87
2022/01/12 12:58:00;;;;;;;;;;;;;;;13.21;58.51;104075.03;5038389;28;19917;-86
2022/01/12 13:00:26;;;;;;;;;;;;;;;12.48;61.68;104083.56;5056755;28;20283;-86
2022/01/12 13:02:55;;;;;;;;;;;;;;;12.55;61.05;104087.19;5058842;28;19929;-85
2022/01/12 13:05:25;;;;;;;;;;;;;;;12.51;61.00;104097.16;5057845;28;19935;-86
2022/01/12 13:07:51;;;;;;;;;;;;;;;12.57;62.17;104102.56;5059670;28;19916;-86
2022/01/12 13:10:26;;;;;;;;;;;;;;;13.20;59.85;104101.34;5062540;28;20393;-85
2022/01/12 13:12:58;;;;;;;;;;;;;;;13.09;58.51;104095.09;5060144;28;19952;-85
2022/01/12 13:15:34;;;;;;;;;;;;;;;12.90;60.74;104094.28;5059790;28;19920;-85
2022/01/12 13:18:02;;;;;;;;;;;;;;;12.24;62.99;104098.13;5061419;28;19924;-85
2022/01/12 13:23:03;;;;;;;;;;;;;;;12.85;61.57;104101.56;5077669;28;19917;-85
2022/01/12 13:25:28;;;;;;;;;;;;;;;13.19;59.03;104099.53;5060205;28;19923;-84
2022/01/12 13:27:53;;;;;;;;;;;;;;;12.74;60.90;104091.63;5060124;28;19987;-86
2022/01/12 13:30:26;;;;;;;;;;;;;;;12.64;61.83;104102.56;5061566;28;19920;-85
2022/01/12 13:32:52;;;;;;;;;;;;;;;13.19;59.14;104109.50;5062457;28;20376;-85
2022/01/12 13:35:24;;;;;;;;;;;;;;;13.61;58.36;104096.56;5063064;28;19962;-85
2022/01/12 13:37:54;;;;;;;;;;;;;;;13.16;59.88;104109.53;5080478;28;20340;-86
2022/01/12 13:40:19;;;;;;;;;;;;;;;13.18;59.36;104108.63;5062207;28;20327;-85
2022/01/12 13:42:46;;;;;;;;;;;;;;;13.55;58.98;104102.94;5062721;28;20377;-85
2022/01/12 13:45:15;;;;;;;;;;;;;;;13.33;59.65;104095.81;5063054;28;20272;-85
2022/01/12 13:47:40;;;;;;;;;;;;;;;13.04;61.45;104099.63;5062729;28;19970;-85
2022/01/12 13:50:08;;;;;;;;;;;;;;;13.35;59.46;104094.94;5080903;28;19921;-84
2022/01/12 13:52:34;;;;;;;;;;;;;;;12.92;61.15;104096.09;5063626;28;19916;-86